Latest Weather Observations for Bunbury

IDW60801

Issued at 11:32 pm WST Saturday 28 March 2015 (issued every 30 minutes, with the page automatically refreshed every 10 minutes)

About weather observations | Map of weather stations | Latest weather observations for WA | Other Formats
Station Details ID: 009965 Name: BUNBURY Lat: -33.36 Lon: 115.64 Height: 5.2 m
Data from the previous 72 hours. | See also: Recent months at Bunbury
Date/Time
WST
Temp
°C
App
Temp
°C
Dew
Point
Rel
Hum
%
Delta-T
°C
Wind Press
QNH
hPa
Press
MSL
hPa
Rain
since 9 am
mm
Dir
 
Spd
km/h
Gust
km/h
Spd
kts
Gust
kts
28/11:30pm 15.7 15.6 13.4 86 1.3 SSW 6 6 3 3 1020.9 1020.8 0.0
28/11:00pm 16.2 16.2 13.5 84 1.5 SSW 6 6 3 3 1021.1 1021.0 0.0
28/10:30pm 16.4 16.6 13.1 81 1.8 SSW 4 6 2 3 1021.1 1021.0 0.0
28/10:00pm 17.1 17.0 13.2 78 2.2 S 6 9 3 5 1021.2 1021.1 0.0
28/09:30pm 17.7 17.4 13.4 76 2.4 SSW 7 9 4 5 1021.2 1021.1 0.0
28/09:00pm 18.2 17.9 13.3 73 2.8 S 7 13 4 7 1021.0 1020.9 0.0
28/08:30pm 19.0 17.9 13.2 69 3.3 S 11 13 6 7 1020.7 1020.6 0.0
28/08:00pm 19.4 18.7 13.3 68 3.5 S 9 13 5 7 1020.5 1020.4 0.0
28/07:30pm 20.1 19.7 14.2 69 3.4 SSW 9 13 5 7 1020.2 1020.1 0.0
28/07:00pm 20.6 21.0 16.4 77 2.5 SW 9 15 5 8 1019.8 1019.7 0.0
28/06:30pm 20.8 20.5 16.4 76 2.7 WSW 13 20 7 11 1019.7 1019.6 0.0
28/06:00pm 21.3 20.6 16.3 73 3.0 WSW 15 24 8 13 1019.6 1019.5 0.0
28/05:30pm 21.7 20.1 16.0 70 3.4 WSW 19 28 10 15 1019.4 1019.3 0.0
28/05:00pm 22.4 21.1 15.7 66 4.0 WSW 17 24 9 13 1019.4 1019.3 0.0
28/04:30pm 22.5 20.7 15.6 65 4.1 W 19 28 10 15 1019.3 1019.2 0.0
28/04:00pm 23.0 21.3 14.8 60 4.8 WSW 17 28 9 15 1019.3 1019.2 0.0
28/03:30pm 22.4 19.6 14.3 60 4.7 W 22 33 12 18 1019.3 1019.2 0.0
28/03:00pm 22.5 20.0 15.1 63 4.4 W 22 30 12 16 1019.5 1019.4 0.0
28/02:30pm 22.6 19.9 14.7 61 4.7 W 22 30 12 16 1019.6 1019.5 0.0
28/02:00pm 23.6 21.2 13.8 54 5.7 W 19 26 10 14 1019.7 1019.6 0.0
28/01:30pm 23.5 21.4 13.7 54 5.7 W 17 24 9 13 1020.0 1019.9 0.0
28/01:00pm 22.7 20.3 13.7 56 5.2 WSW 19 26 10 14 1020.2 1020.1 0.0
28/12:30pm 23.3 21.6 13.5 54 5.7 WSW 15 22 8 12 1020.6 1020.5 0.0
28/12:00pm 22.5 20.1 12.7 54 5.6 WSW 17 26 9 14 1021.0 1020.9 0.0
28/11:30am 23.1 21.5 11.5 48 6.5 SSW 11 19 6 10 1021.2 1021.1 0.0
28/11:00am 22.8 21.8 12.4 52 5.9 SSW 9 20 5 11 1021.5 1021.4 0.0
28/10:30am 21.9 19.8 12.5 55 5.3 S 15 22 8 12 1021.7 1021.6 0.0
28/10:00am 21.6 20.7 12.7 57 5.0 S 9 20 5 11 1021.8 1021.7 0.0
28/09:30am 20.5 19.0 13.0 62 4.3 SSE 13 20 7 11 1021.9 1021.8 0.0
28/09:00am 19.6 18.7 14.8 74 2.8 SE 13 20 7 11 1021.9 1021.8 0.0
28/08:30am 18.3 18.4 15.6 84 1.6 SE 9 13 5 7 1021.9 1021.8 0.0
28/08:00am 17.1 17.9 15.8 92 0.8 SE 6 7 3 4 1021.8 1021.7 0.0
28/07:30am 14.9 15.6 14.6 98 0.2 S 4 6 2 3 1021.6 1021.5 0.0
28/07:00am 13.2 14.1 12.9 98 0.2 CALM 0 2 0 1 1021.3 1021.2 0.0
28/06:30am 13.8 14.1 13.5 98 0.2 S 4 4 2 2 1021.1 1021.0 0.0
28/06:00am 14.2 14.7 13.9 98 0.2 S 4 6 2 3 1021.0 1020.9 0.0
28/05:30am 14.9 15.2 14.6 98 0.2 S 6 7 3 4 1020.7 1020.6 0.0
28/05:00am 14.9 14.7 14.6 98 0.2 S 9 13 5 7 1020.6 1020.5 0.0
28/04:30am 15.0 14.8 14.7 98 0.2 S 9 13 5 7 1020.3 1020.2 0.0
28/04:00am 15.1 14.6 14.8 98 0.2 S 11 13 6 7 1019.9 1019.8 0.0
28/03:30am 15.0 14.8 14.7 98 0.2 S 9 13 5 7 1019.7 1019.6 0.0
28/03:00am 15.0 15.2 14.7 98 0.2 S 7 9 4 5 1019.6 1019.5 0.0
28/02:30am 14.9 15.1 14.6 98 0.2 S 7 9 4 5 1019.6 1019.5 0.0
28/02:00am 15.4 15.9 15.1 98 0.2 S 6 7 3 4 1019.8 1019.7 0.0
28/01:30am 16.1 16.9 15.8 98 0.2 SSE 6 9 3 5 1019.8 1019.7 0.0
28/01:00am 16.3 16.6 16.0 98 0.2 S 9 13 5 7 1019.9 1019.8 0.0
28/12:30am 16.3 16.6 16.0 98 0.2 S 9 13 5 7 1019.8 1019.7 0.0
28/12:00am 16.5 16.8 15.9 96 0.4 S 9 11 5 6 1019.9 1019.8 0.0
 
Date/Time
WST
Temp
°C
App
Temp
°C
Dew
Point
Rel
Hum
%
Delta-T
°C
Wind Press
QNH
hPa
Press
MSL
hPa
Rain
since 9 am
mm
Dir
 
Spd
km/h
Gust
km/h
Spd
kts
Gust
kts
27/11:30pm 16.8 17.4 15.7 93 0.6 SSW 7 9 4 5 1020.1 1020.0 0.0
27/11:00pm 17.3 17.8 15.5 89 1.1 SSW 7 9 4 5 1020.1 1020.0 0.0
27/10:30pm 17.9 18.6 15.5 86 1.4 SSE 6 7 3 4 1020.0 1019.9 0.0
27/10:00pm 18.3 18.7 15.4 83 1.7 SE 7 9 4 5 1020.1 1020.0 0.0
27/09:30pm 18.6 18.7 15.5 82 1.8 SSE 9 13 5 7 1020.3 1020.2 0.0
27/09:00pm 18.4 18.7 15.1 81 1.9 SE 7 15 4 8 1020.4 1020.3 0.0
27/08:30pm 19.1 19.2 15.4 79 2.2 SE 9 13 5 7 1020.3 1020.2 0.0
27/08:00pm 19.3 19.4 15.4 78 2.3 S 9 13 5 7 1019.9 1019.8 0.0
27/07:30pm 19.8 20.0 14.6 72 3.0 S 7 13 4 7 1019.5 1019.4 0.0
27/07:00pm 20.4 20.5 13.8 66 3.8 S 6 9 3 5 1019.0 1018.9 0.0
27/06:30pm 21.5 21.6 13.9 62 4.4 SSE 6 9 3 5 1018.7 1018.6 0.0
27/06:00pm 22.5 22.3 15.8 66 4.0 SW 11 17 6 9 1018.7 1018.6 0.0
27/05:30pm 22.9 21.4 16.2 66 4.1 SW 19 28 10 15 1018.8 1018.7 0.0
27/05:00pm 22.7 20.5 14.8 61 4.7 WSW 20 33 11 18 1018.8 1018.7 0.0
27/04:30pm 23.3 22.4 16.8 67 4.0 WSW 17 24 9 13 1018.7 1018.6 0.0
27/04:00pm 24.5 22.8 13.7 51 6.3 WSW 15 22 8 12 1018.4 1018.3 0.0
27/03:30pm 24.2 22.2 14.9 56 5.5 WSW 19 24 10 13 1018.5 1018.4 0.0
27/03:00pm 24.2 22.2 14.9 56 5.5 W 19 24 10 13 1018.6 1018.5 0.0
27/02:30pm 25.6 24.3 14.7 51 6.5 W 15 19 8 10 1018.6 1018.5 0.0
27/02:00pm 25.0 23.4 13.9 50 6.5 W 15 20 8 11 1019.0 1018.9 0.0
27/01:30pm 24.8 23.7 15.4 56 5.7 W 15 22 8 12 1019.3 1019.2 0.0
27/01:00pm 25.6 25.9 15.0 52 6.4 W 7 13 4 7 1019.7 1019.6 0.0
27/12:30pm 26.9 25.9 12.2 40 8.5 ENE 9 20 5 11 1019.9 1019.8 0.0
27/12:00pm 25.9 24.8 12.0 42 7.9 E 9 17 5 9 1020.3 1020.2 0.0
27/11:30am 25.8 24.8 12.3 43 7.8 ESE 9 15 5 8 1020.8 1020.7 0.0
27/11:00am 25.6 24.9 13.1 46 7.3 ENE 9 15 5 8 1021.2 1021.1 0.0
27/10:30am 24.8 24.3 13.7 50 6.5 NE 9 15 5 8 1021.4 1021.3 0.0
27/10:00am 23.2 21.7 13.1 53 5.8 ENE 13 20 7 11 1021.5 1021.4 0.0
27/09:30am 22.5 20.9 12.7 54 5.6 NE 13 19 7 10 1021.5 1021.4 0.0
27/09:00am 21.6 20.6 12.2 55 5.3 ENE 9 13 5 7 1021.6 1021.5 0.0
27/08:30am 20.0 17.7 11.8 59 4.5 E 15 20 8 11 1021.7 1021.6 0.0
27/08:00am 20.1 18.7 12.3 61 4.4 ENE 11 17 6 9 1021.6 1021.5 0.0
27/07:30am 19.2 18.7 12.5 65 3.7 ENE 7 11 4 6 1021.4 1021.3 0.0
27/07:00am 19.1 18.4 12.1 64 3.9 ENE 7 15 4 8 1021.3 1021.2 0.0
27/06:30am 19.1 17.7 12.1 64 3.9 ENE 11 17 6 9 1020.9 1020.8 0.0
27/06:00am 19.1 17.7 12.1 64 3.9 ENE 11 15 6 8 1020.8 1020.7 0.0
27/05:30am 18.8 16.7 12.3 66 3.6 ENE 15 20 8 11 1020.9 1020.8 0.0
27/05:00am 19.0 17.7 12.5 66 3.6 ENE 11 15 6 8 1020.7 1020.6 0.0
27/04:30am 19.3 17.9 12.3 64 3.9 ENE 11 17 6 9 1020.7 1020.6 0.0
27/04:00am 19.8 18.6 11.6 59 4.5 ENE 9 15 5 8 1021.2 1021.1 0.0
27/03:30am 19.7 18.9 11.7 60 4.4 ENE 7 11 4 6 1021.2 1021.1 0.0
27/03:00am 19.2 18.9 12.7 66 3.6 NE 6 9 3 5 1021.4 1021.3 0.0
27/02:30am 19.4 19.4 12.4 64 3.9 E 4 6 2 3 1021.6 1021.5 0.0
27/02:00am 20.2 19.6 12.4 61 4.4 NE 7 9 4 5 1021.7 1021.6 0.0
27/01:30am 20.9 20.4 13.8 64 4.1 NNE 9 15 5 8 1021.8 1021.7 0.0
27/01:00am 21.2 21.6 16.2 73 3.0 NNE 9 13 5 7 1021.8 1021.7 0.0
27/12:30am 21.5 21.2 16.5 73 3.0 N 13 20 7 11 1021.8 1021.7 0.0
27/12:00am 21.9 21.3 15.7 68 3.7 N 13 19 7 10 1021.6 1021.5 0.0
 
Date/Time
WST
Temp
°C
App
Temp
°C
Dew
Point
Rel
Hum
%
Delta-T
°C
Wind Press
QNH
hPa
Press
MSL
hPa
Rain
since 9 am
mm
Dir
 
Spd
km/h
Gust
km/h
Spd
kts
Gust
kts
26/11:30pm 22.3 21.8 16.8 71 3.4 NNW 15 24 8 13 1022.0 1021.9 0.0
26/11:00pm 23.1 21.5 10.2 44 7.0 NNE 9 13 5 7 1021.7 1021.6 0.0
26/10:30pm 22.6 20.7 7.6 38 7.8 NE 7 13 4 7 1021.5 1021.4 0.0
26/10:00pm 20.1 19.3 8.1 46 6.2 NE 2 4 1 2 1021.4 1021.3 0.0
26/09:30pm 20.3 18.3 7.3 43 6.6 SE 7 9 4 5 1021.3 1021.2 0.0
26/09:00pm 21.2 18.8 7.1 40 7.2 SE 9 11 5 6 1021.5 1021.4 0.0
26/08:30pm 21.5 19.5 7.0 39 7.4 SE 7 9 4 5 1021.4 1021.3 0.0
26/08:00pm 21.7 19.7 7.2 39 7.4 ESE 7 9 4 5 1021.2 1021.1 0.0
26/07:30pm 20.4 19.0 8.7 47 6.1 SE 6 6 3 3 1021.1 1021.0 0.0
26/07:00pm 22.7 21.6 6.9 36 8.1 ESE 2 4 1 2 1020.9 1020.8 0.0
26/06:30pm 25.4 23.4 6.1 29 10.0 E 6 9 3 5 1020.8 1020.7 0.0
26/06:00pm 27.0 24.7 5.9 26 10.9 E 7 13 4 7 1020.8 1020.7 0.0
26/05:30pm 28.4 25.2 5.3 23 12.0 ENE 11 19 6 10 1020.6 1020.5 0.0
26/05:00pm 28.1 26.9 10.3 33 10.0 W 7 11 4 6 1020.5 1020.4 0.0
26/04:30pm 27.3 25.6 11.3 37 9.1 WNW 11 15 6 8 1020.4 1020.3 0.0
26/04:00pm 27.6 25.9 11.2 36 9.3 W 11 17 6 9 1020.4 1020.3 0.0
26/03:30pm 27.7 26.4 11.3 36 9.4 W 9 13 5 7 1020.6 1020.5 0.0
26/03:00pm 27.2 25.9 11.3 37 9.0 WSW 9 17 5 9 1020.8 1020.7 0.0
26/02:30pm 27.9 26.0 10.6 34 9.8 WSW 11 17 6 9 1021.2 1021.1 0.0
26/02:00pm 29.1 26.7 7.1 25 11.8 E 9 17 5 9 1021.5 1021.4 0.0
26/01:30pm 28.3 26.0 7.5 27 11.2 NE 9 15 5 8 1022.1 1022.0 0.0
26/01:00pm 27.9 24.9 7.7 28 10.8 ESE 13 20 7 11 1022.6 1022.5 0.0
26/12:30pm 27.2 24.6 9.5 33 9.8 NE 13 19 7 10 1023.0 1022.9 0.0
26/12:00pm 27.0 24.4 9.4 33 9.7 ENE 13 20 7 11 1023.5 1023.4 0.0
26/11:30am 25.9 23.8 9.7 36 8.9 E 11 22 6 12 1023.9 1023.8 0.0
26/11:00am 25.2 22.6 10.6 40 8.1 E 15 24 8 13 1024.3 1024.2 0.0
26/10:30am 23.7 20.6 10.4 43 7.3 E 17 24 9 13 1024.7 1024.6 0.0
26/10:00am 21.9 18.2 10.1 47 6.4 E 20 30 11 16 1024.9 1024.8 0.0
26/09:30am 20.9 17.2 10.1 50 5.8 E 20 30 11 16 1025.2 1025.1 0.0
26/09:00am 19.0 14.6 10.3 57 4.6 E 24 32 13 17 1025.1 1025.0 0.0
26/08:30am 18.2 13.7 10.1 59 4.3 ENE 24 33 13 18 1025.3 1025.2 0.0
26/08:00am 17.4 13.7 10.3 63 3.8 E 20 32 11 17 1025.3 1025.2 0.0
26/07:30am 16.5 13.4 10.4 67 3.2 E 17 24 9 13 1025.6 1025.5 0.0
26/07:00am 15.7 13.0 10.2 70 2.9 ENE 15 22 8 12 1025.7 1025.6 0.0
26/06:30am 15.4 11.9 10.2 71 2.7 ENE 19 26 10 14 1025.5 1025.4 0.0
26/06:00am 15.5 12.5 10.5 72 2.6 E 17 26 9 14 1025.2 1025.1 0.0
26/05:30am 15.7 13.1 10.7 72 2.7 E 15 20 8 11 1025.2 1025.1 0.0
26/05:00am 16.0 12.1 10.7 71 2.8 E 22 35 12 19 1024.8 1024.7 0.0
26/04:30am 16.0 12.6 10.7 71 2.8 E 19 32 10 17 1024.6 1024.5 0.0
26/04:00am 16.1 12.6 10.8 71 2.8 E 20 32 11 17 1024.6 1024.5 0.0
26/03:30am 16.3 13.3 10.8 70 2.9 ESE 17 30 9 16 1024.7 1024.6 0.0
26/03:00am 16.6 12.7 10.9 69 3.0 E 22 32 12 17 1024.8 1024.7 0.0
26/02:30am 16.6 14.1 10.9 69 3.1 E 15 22 8 12 1025.0 1024.9 0.0
26/02:00am 16.5 13.1 11.2 71 2.8 E 20 35 11 19 1025.1 1025.0 0.0
26/01:30am 16.6 13.2 11.3 71 2.9 E 20 28 11 15 1025.2 1025.1 0.0
26/01:00am 16.5 13.7 11.4 72 2.7 E 17 28 9 15 1025.6 1025.5 0.0
26/12:30am 16.7 14.4 11.6 72 2.8 E 15 24 8 13 1025.6 1025.5 0.0
26/12:00am 16.8 13.7 11.7 72 2.8 E 19 28 10 15 1025.5 1025.4 0.0

Other Formats:

Comma delimited format used in spreadsheet applications
http://www.bom.gov.au/fwo/IDW60801/IDW60801.94604.axf

JavaScript Object Notation format (JSON) in row-major order
http://www.bom.gov.au/fwo/IDW60801/IDW60801.94604.json